Time;durP1;ratioP1;P1;durP2;ratioP2;P2;SDS_P1;SDS_P2;PMS_P1;PMS_P2;Temp;Humidity;BMP_temperature;BMP_pressure;BME280_temperature;BME280_humidity;BME280_pressure;Samples;Min_cycle;Max_cycle;Signal;HPM_P1;HPM_P2
2022/06/24 00:00:13;;;;;;;6.30;4.18;;;;;;;;;;5107103;27;20233;-12
2022/06/24 00:02:40;;;;;;;7.00;3.92;;;;;;;;;;5091933;28;20229;-13
2022/06/24 00:05:12;;;;;;;7.55;3.97;;;;;;;;;;5095561;28;20397;-13
2022/06/24 00:07:46;;;;;;;8.48;4.53;;;;;;;;;;5091120;28;20220;-13
2022/06/24 00:10:13;;;;;;;8.70;4.15;;;;;;;;;;5095735;27;20235;-11
2022/06/24 00:12:40;;;;;;;6.18;4.40;;;;;;;;;;5090500;28;20230;-13
2022/06/24 00:15:09;;;;;;;8.05;4.25;;;;;;;;;;5091214;28;20244;-13
2022/06/24 00:17:37;;;;;;;5.97;4.10;;;;;;;;;;5106899;28;20217;-13
2022/06/24 00:20:05;;;;;;;9.75;4.28;;;;;;;;;;5112416;28;20208;-12
2022/06/24 00:22:32;;;;;;;6.95;3.97;;;;;;;;;;5113769;27;20258;-13
2022/06/24 00:25:10;;;;;;;8.18;4.25;;;;;;;;;;5113255;28;21123;-12
2022/06/24 00:27:38;;;;;;;5.45;3.75;;;;;;;;;;5095125;28;20209;-13
2022/06/24 00:30:11;;;;;;;8.57;4.00;;;;;;;;;;5101802;28;20224;-12
2022/06/24 00:32:38;;;;;;;6.80;4.07;;;;;;;;;;5101642;27;20233;-12
2022/06/24 00:35:12;;;;;;;5.97;3.95;;;;;;;;;;5096651;28;20232;-11
2022/06/24 00:37:40;;;;;;;5.80;3.92;;;;;;;;;;5113597;28;20238;-13
2022/06/24 00:40:22;;;;;;;10.93;4.43;;;;;;;;;;5113934;28;20228;-13
2022/06/24 00:42:49;;;;;;;5.63;3.90;;;;;;;;;;5099923;27;20948;-13
2022/06/24 00:45:21;;;;;;;8.25;4.28;;;;;;;;;;5095667;28;20233;-13
2022/06/24 00:47:48;;;;;;;5.70;4.28;;;;;;;;;;5114388;28;20687;-13
2022/06/24 00:50:17;;;;;;;8.63;4.03;;;;;;;;;;5112711;28;20240;-13
2022/06/24 00:52:45;;;;;;;4.68;4.07;;;;;;;;;;5114080;28;20307;-12
2022/06/24 00:55:12;;;;;;;7.05;4.25;;;;;;;;;;5109461;27;20221;-13
2022/06/24 00:57:39;;;;;;;6.05;4.22;;;;;;;;;;5092987;28;20229;-13
2022/06/24 01:00:07;;;;;;;8.57;4.43;;;;;;;;;;5093654;28;20224;-12
2022/06/24 01:02:37;;;;;;;6.57;4.55;;;;;;;;;;5095009;28;20286;-13
2022/06/24 01:05:11;;;;;;;6.88;4.35;;;;;;;;;;5093103;28;20232;-11
2022/06/24 01:07:38;;;;;;;5.70;4.30;;;;;;;;;;5108281;28;20232;-12
2022/06/24 01:10:06;;;;;;;5.13;4.05;;;;;;;;;;5112477;28;21037;-13
2022/06/24 01:12:34;;;;;;;7.50;4.85;;;;;;;;;;5107315;27;20721;-13
2022/06/24 01:15:01;;;;;;;8.60;5.00;;;;;;;;;;5093213;27;20235;-13
2022/06/24 01:17:28;;;;;;;7.50;4.57;;;;;;;;;;5101319;27;20237;-13
2022/06/24 01:19:57;;;;;;;8.50;5.03;;;;;;;;;;5106203;27;20243;-13
2022/06/24 01:22:26;;;;;;;4.80;4.13;;;;;;;;;;5101836;27;20247;-13
2022/06/24 01:24:54;;;;;;;9.40;5.45;;;;;;;;;;5098312;27;20232;-12
2022/06/24 01:27:23;;;;;;;7.30;4.88;;;;;;;;;;5093275;28;20257;-12
2022/06/24 01:29:50;;;;;;;8.75;5.53;;;;;;;;;;5092360;28;20973;-13
2022/06/24 01:32:18;;;;;;;8.32;5.50;;;;;;;;;;5112633;28;20239;-13
2022/06/24 01:34:45;;;;;;;11.43;6.30;;;;;;;;;;5109486;27;20220;-13
2022/06/24 01:37:12;;;;;;;10.38;5.78;;;;;;;;;;5092696;28;20236;-13
2022/06/24 01:39:41;;;;;;;7.30;5.38;;;;;;;;;;5092231;28;20703;-13
2022/06/24 01:42:08;;;;;;;11.65;7.10;;;;;;;;;;5111797;28;20282;-13
2022/06/24 01:44:37;;;;;;;8.15;6.07;;;;;;;;;;5113036;28;20228;-13
2022/06/24 01:47:11;;;;;;;9.40;6.70;;;;;;;;;;5111930;27;20228;-12
2022/06/24 01:49:38;;;;;;;11.00;6.88;;;;;;;;;;5107372;28;20236;-11
2022/06/24 01:52:05;;;;;;;11.13;7.32;;;;;;;;;;5093763;28;20220;-11
2022/06/24 01:54:33;;;;;;;12.45;6.90;;;;;;;;;;5092399;28;20717;-13
2022/06/24 01:57:02;;;;;;;10.85;6.38;;;;;;;;;;5102809;27;20731;-12
2022/06/24 01:59:29;;;;;;;8.30;6.75;;;;;;;;;;5092382;28;20700;-13
2022/06/24 02:01:56;;;;;;;9.23;6.30;;;;;;;;;;5097200;28;20687;-12
2022/06/24 02:04:24;;;;;;;11.50;7.00;;;;;;;;;;5091732;28;20236;-13
2022/06/24 02:06:51;;;;;;;7.78;6.10;;;;;;;;;;5092305;28;20220;-13
2022/06/24 02:09:19;;;;;;;8.90;5.93;;;;;;;;;;5110754;27;20224;-13
2022/06/24 02:14:32;;;;;;;6.80;5.95;;;;;;;;;;5112730;28;20238;-13
2022/06/24 02:17:00;;;;;;;6.38;5.53;;;;;;;;;;5112715;28;20239;-13
2022/06/24 02:19:27;;;;;;;6.18;5.05;;;;;;;;;;5112388;27;20742;-13
2022/06/24 02:21:54;;;;;;;6.95;5.72;;;;;;;;;;5124675;22;20250;-14
2022/06/24 02:24:22;;;;;;;7.80;5.28;;;;;;;;;;5104488;28;20232;-14
2022/06/24 02:26:49;;;;;;;9.23;5.78;;;;;;;;;;5112672;28;20228;-14
2022/06/24 02:29:17;;;;;;;7.65;5.78;;;;;;;;;;5110446;27;20328;-14
2022/06/24 02:31:45;;;;;;;8.32;5.43;;;;;;;;;;5106363;28;20687;-14
2022/06/24 02:34:13;;;;;;;6.40;5.38;;;;;;;;;;5112850;28;20267;-14
2022/06/24 02:36:40;;;;;;;9.60;6.32;;;;;;;;;;5112834;28;21047;-14
2022/06/24 02:39:07;;;;;;;4.93;4.43;;;;;;;;;;5112311;27;20730;-14
2022/06/24 02:41:35;;;;;;;7.30;5.18;;;;;;;;;;5111725;27;20231;-14
2022/06/24 02:44:02;;;;;;;7.28;4.53;;;;;;;;;;5112355;28;20338;-14
2022/06/24 02:46:29;;;;;;;10.20;4.60;;;;;;;;;;5112491;28;20231;-14
2022/06/24 02:48:58;;;;;;;5.78;4.53;;;;;;;;;;5112464;28;20224;-14
2022/06/24 02:51:26;;;;;;;7.15;4.97;;;;;;;;;;5111598;28;20228;-14
2022/06/24 02:53:53;;;;;;;9.38;4.85;;;;;;;;;;5111967;28;20228;-14
2022/06/24 02:56:21;;;;;;;6.63;4.72;;;;;;;;;;5111987;28;20699;-14
2022/06/24 02:58:48;;;;;;;8.07;4.80;;;;;;;;;;5112795;28;20228;-14
2022/06/24 03:01:16;;;;;;;6.07;4.60;;;;;;;;;;5111996;28;20922;-14
2022/06/24 03:03:43;;;;;;;6.20;4.55;;;;;;;;;;5124942;27;20319;-14
2022/06/24 03:06:12;;;;;;;7.80;5.07;;;;;;;;;;5133374;27;20211;-14
2022/06/24 03:08:40;;;;;;;6.10;4.75;;;;;;;;;;5122161;27;20228;-14
2022/06/24 03:11:12;;;;;;;5.53;4.35;;;;;;;;;;5112403;28;20234;-14
2022/06/24 03:13:39;;;;;;;8.40;4.35;;;;;;;;;;5111416;28;20228;-14
2022/06/24 03:16:07;;;;;;;5.00;4.50;;;;;;;;;;5112228;28;20216;-14
2022/06/24 03:18:34;;;;;;;6.72;4.28;;;;;;;;;;5111789;28;20243;-14
2022/06/24 03:21:01;;;;;;;8.23;4.50;;;;;;;;;;5105460;28;20245;-14
2022/06/24 03:23:30;;;;;;;7.18;3.88;;;;;;;;;;5091810;28;20236;-14
2022/06/24 03:25:57;;;;;;;5.70;3.85;;;;;;;;;;5090532;28;20230;-14
2022/06/24 03:28:25;;;;;;;5.80;4.20;;;;;;;;;;5091551;28;20228;-14
2022/06/24 03:30:52;;;;;;;6.50;4.07;;;;;;;;;;5085363;28;20236;-14
2022/06/24 03:33:20;;;;;;;4.50;4.00;;;;;;;;;;5071206;28;20222;-14
2022/06/24 03:35:48;;;;;;;7.50;4.32;;;;;;;;;;5078281;28;20257;-14
2022/06/24 03:38:15;;;;;;;4.70;3.80;;;;;;;;;;5091372;28;20247;-14
2022/06/24 03:40:44;;;;;;;4.95;4.15;;;;;;;;;;5083949;28;20240;-14
2022/06/24 03:43:11;;;;;;;4.93;4.00;;;;;;;;;;5070657;28;20227;-14
2022/06/24 03:45:39;;;;;;;4.65;3.75;;;;;;;;;;5091015;28;20228;-14
2022/06/24 03:48:06;;;;;;;4.65;3.33;;;;;;;;;;5107044;28;20227;-14
2022/06/24 03:50:33;;;;;;;3.83;2.90;;;;;;;;;;5104714;28;20730;-14
2022/06/24 03:53:01;;;;;;;4.43;2.60;;;;;;;;;;5076072;28;21023;-14
2022/06/24 03:55:28;;;;;;;3.05;2.60;;;;;;;;;;5076159;28;20489;-14
2022/06/24 03:57:57;;;;;;;4.53;2.53;;;;;;;;;;5081273;28;20236;-14
2022/06/24 04:00:25;;;;;;;3.40;2.17;;;;;;;;;;5089726;28;20710;-14
2022/06/24 04:02:52;;;;;;;3.72;2.42;;;;;;;;;;5076431;28;20232;-14
2022/06/24 04:05:19;;;;;;;3.20;2.50;;;;;;;;;;5078243;28;20213;-14
2022/06/24 04:07:47;;;;;;;3.67;2.10;;;;;;;;;;5094067;28;20224;-14
2022/06/24 04:10:14;;;;;;;4.07;2.30;;;;;;;;;;5090723;28;20241;-14
2022/06/24 04:12:42;;;;;;;2.10;1.90;;;;;;;;;;5074557;28;20276;-14
2022/06/24 04:15:17;;;;;;;2.72;2.00;;;;;;;;;;5076771;28;20229;-14
2022/06/24 04:17:45;;;;;;;3.13;2.38;;;;;;;;;;5094458;28;20733;-14
2022/06/24 04:20:13;;;;;;;2.85;2.10;;;;;;;;;;5093676;28;20228;-14
2022/06/24 04:22:40;;;;;;;3.28;2.50;;;;;;;;;;5078975;28;20284;-14
2022/06/24 04:25:09;;;;;;;3.50;2.33;;;;;;;;;;5077096;28;20217;-14
2022/06/24 04:27:38;;;;;;;3.08;2.20;;;;;;;;;;5094571;28;20209;-14
2022/06/24 04:30:06;;;;;;;2.63;1.92;;;;;;;;;;5094038;28;20240;-14
2022/06/24 04:32:34;;;;;;;2.92;2.30;;;;;;;;;;5075837;28;20225;-14
2022/06/24 04:35:03;;;;;;;2.35;1.73;;;;;;;;;;5075930;28;20214;-14
2022/06/24 04:37:31;;;;;;;2.00;1.80;;;;;;;;;;5075530;28;20240;-14
2022/06/24 04:39:58;;;;;;;3.55;1.90;;;;;;;;;;5074094;28;20225;-15
2022/06/24 04:42:26;;;;;;;4.68;1.90;;;;;;;;;;5084258;28;20231;-14
2022/06/24 04:44:54;;;;;;;2.28;1.77;;;;;;;;;;5093551;28;20233;-14
2022/06/24 04:47:22;;;;;;;3.25;1.90;;;;;;;;;;5093299;28;20761;-14
2022/06/24 04:49:51;;;;;;;3.80;1.63;;;;;;;;;;5093744;28;20240;-14
2022/06/24 04:52:19;;;;;;;2.25;1.88;;;;;;;;;;5083778;28;20214;-15
2022/06/24 04:54:47;;;;;;;4.32;1.90;;;;;;;;;;5093815;28;20241;-14
2022/06/24 04:57:15;;;;;;;3.13;1.67;;;;;;;;;;5073161;28;20225;-14
2022/06/24 04:59:42;;;;;;;3.72;1.52;;;;;;;;;;5078804;28;20710;-14
2022/06/24 05:02:09;;;;;;;2.40;1.60;;;;;;;;;;5089435;28;20251;-14
2022/06/24 05:04:37;;;;;;;3.05;1.65;;;;;;;;;;5093297;28;20229;-14
2022/06/24 05:07:06;;;;;;;7.10;2.00;;;;;;;;;;5093270;28;20217;-14
2022/06/24 05:09:33;;;;;;;2.50;1.42;;;;;;;;;;5076294;28;20210;-14
2022/06/24 05:12:00;;;;;;;3.50;1.40;;;;;;;;;;5073406;28;20229;-14
2022/06/24 05:14:28;;;;;;;3.40;1.85;;;;;;;;;;5087744;28;20317;-14
2022/06/24 05:16:55;;;;;;;1.77;1.30;;;;;;;;;;5092733;28;20221;-14
2022/06/24 05:19:23;;;;;;;4.18;1.55;;;;;;;;;;5093412;28;20331;-14
2022/06/24 05:21:50;;;;;;;3.63;1.70;;;;;;;;;;5085111;28;20639;-14
2022/06/24 05:24:19;;;;;;;2.22;1.45;;;;;;;;;;5073555;28;20241;-14
2022/06/24 05:26:46;;;;;;;2.47;1.23;;;;;;;;;;5087167;28;20233;-14
2022/06/24 05:29:14;;;;;;;2.00;1.30;;;;;;;;;;5093462;28;20223;-14
2022/06/24 05:31:41;;;;;;;3.05;1.60;;;;;;;;;;5093372;28;20240;-14
2022/06/24 05:34:08;;;;;;;3.58;1.60;;;;;;;;;;5093787;28;20225;-14
2022/06/24 05:36:36;;;;;;;2.63;1.67;;;;;;;;;;5092741;28;21683;-14
2022/06/24 05:39:03;;;;;;;3.25;1.52;;;;;;;;;;5093397;28;20221;-14
2022/06/24 05:41:32;;;;;;;1.77;1.23;;;;;;;;;;5092468;28;20232;-14
2022/06/24 05:44:00;;;;;;;2.65;1.30;;;;;;;;;;5093300;28;20229;-14
2022/06/24 05:46:27;;;;;;;2.50;1.38;;;;;;;;;;5092380;28;20225;-14
2022/06/24 05:48:55;;;;;;;1.77;1.20;;;;;;;;;;5092887;28;20245;-14
2022/06/24 05:51:23;;;;;;;1.38;1.02;;;;;;;;;;5089501;28;20601;-14
2022/06/24 05:56:37;;;;;;;1.85;1.10;;;;;;;;;;5074075;28;20222;-14
2022/06/24 05:59:11;;;;;;;1.50;1.27;;;;;;;;;;5081567;28;20244;-14
2022/06/24 06:01:39;;;;;;;2.28;1.20;;;;;;;;;;5079377;28;20213;-14
2022/06/24 06:04:06;;;;;;;1.50;1.00;;;;;;;;;;5078197;28;20232;-14
2022/06/24 06:06:34;;;;;;;2.38;1.40;;;;;;;;;;5092877;28;20743;-14
2022/06/24 06:09:01;;;;;;;1.70;1.00;;;;;;;;;;5092914;28;20947;-14
2022/06/24 06:11:29;;;;;;;1.58;1.35;;;;;;;;;;5090431;28;20734;-14
2022/06/24 06:13:57;;;;;;;2.05;1.00;;;;;;;;;;5092713;28;20700;-14
2022/06/24 06:16:26;;;;;;;1.45;0.95;;;;;;;;;;5092203;28;20229;-14
2022/06/24 06:18:54;;;;;;;2.92;1.40;;;;;;;;;;5091916;28;20229;-14
2022/06/24 06:21:21;;;;;;;1.88;1.23;;;;;;;;;;5079600;28;20251;-14
2022/06/24 06:23:48;;;;;;;2.28;1.25;;;;;;;;;;5072273;28;20213;-14
2022/06/24 06:26:16;;;;;;;3.17;1.40;;;;;;;;;;5072531;28;20221;-14
2022/06/24 06:28:43;;;;;;;1.55;1.10;;;;;;;;;;5072324;28;20217;-14
2022/06/24 06:31:12;;;;;;;2.30;1.08;;;;;;;;;;5082758;28;20237;-14
2022/06/24 06:33:40;;;;;;;2.20;1.23;;;;;;;;;;5092576;28;20689;-14
2022/06/24 06:36:08;;;;;;;1.95;1.00;;;;;;;;;;5081090;28;20214;-14
2022/06/24 06:38:35;;;;;;;1.33;1.02;;;;;;;;;;5071922;28;20237;-14
2022/06/24 06:41:03;;;;;;;3.13;1.10;;;;;;;;;;5072313;28;20236;-14
2022/06/24 06:43:30;;;;;;;2.72;1.20;;;;;;;;;;5094210;28;20967;-14
2022/06/24 06:45:58;;;;;;;1.70;0.90;;;;;;;;;;5101047;28;20217;-14
2022/06/24 06:48:26;;;;;;;3.17;1.25;;;;;;;;;;5092010;28;20224;-14
2022/06/24 06:50:54;;;;;;;2.08;0.93;;;;;;;;;;5090922;28;20225;-14
2022/06/24 06:53:22;;;;;;;2.75;1.30;;;;;;;;;;5074382;28;20300;-14
2022/06/24 06:55:49;;;;;;;2.67;0.93;;;;;;;;;;5090517;28;20213;-14
2022/06/24 06:58:17;;;;;;;2.38;1.00;;;;;;;;;;5091858;28;20967;-14
2022/06/24 07:00:44;;;;;;;1.38;1.00;;;;;;;;;;5086880;28;20288;-14
2022/06/24 07:03:12;;;;;;;3.80;1.10;;;;;;;;;;5071187;28;20242;-14
2022/06/24 07:05:42;;;;;;;2.90;1.27;;;;;;;;;;5083988;28;20233;-14
2022/06/24 07:08:10;;;;;;;2.38;1.10;;;;;;;;;;5091531;28;20311;-14
2022/06/24 07:10:38;;;;;;;1.77;1.13;;;;;;;;;;5091704;28;20217;-14
2022/06/24 07:13:05;;;;;;;3.53;1.17;;;;;;;;;;5091282;28;20235;-14
2022/06/24 07:15:32;;;;;;;2.20;1.15;;;;;;;;;;5087884;28;20750;-14
2022/06/24 07:18:00;;;;;;;2.70;1.45;;;;;;;;;;5071331;28;20256;-13
2022/06/24 07:20:27;;;;;;;2.67;1.40;;;;;;;;;;5071496;28;20248;-14
2022/06/24 07:22:56;;;;;;;2.63;1.20;;;;;;;;;;5066329;28;20295;-14
2022/06/24 07:25:23;;;;;;;2.63;1.20;;;;;;;;;;5070315;28;20229;-14
2022/06/24 07:27:51;;;;;;;2.55;1.40;;;;;;;;;;5069833;28;20221;-14
2022/06/24 07:30:18;;;;;;;1.98;1.30;;;;;;;;;;5070927;28;20328;-14
2022/06/24 07:32:46;;;;;;;2.75;1.30;;;;;;;;;;5071076;28;20220;-14
2022/06/24 07:35:13;;;;;;;2.78;1.30;;;;;;;;;;5070459;28;20972;-14
2022/06/24 07:38:02;;;;;;;1.40;1.27;;;;;;;;;;5070549;28;20611;-14
2022/06/24 07:40:29;;;;;;;1.88;1.20;;;;;;;;;;5070772;28;20225;-14
2022/06/24 07:42:57;;;;;;;2.92;1.27;;;;;;;;;;5071052;28;20229;-14
2022/06/24 07:45:24;;;;;;;2.78;1.27;;;;;;;;;;5070495;28;21028;-14
2022/06/24 07:47:52;;;;;;;2.53;1.20;;;;;;;;;;5070543;28;20221;-14
2022/06/24 07:50:19;;;;;;;2.00;1.13;;;;;;;;;;5069411;28;20233;-14
2022/06/24 07:52:47;;;;;;;3.67;1.40;;;;;;;;;;5070722;28;20267;-14
2022/06/24 07:58:01;;;;;;;3.53;1.60;;;;;;;;;;5070487;28;20221;-14
2022/06/24 08:00:28;;;;;;;1.13;0.95;;;;;;;;;;5069798;28;20716;-14
2022/06/24 08:02:56;;;;;;;2.92;1.58;;;;;;;;;;5070910;28;20222;-13
2022/06/24 08:05:23;;;;;;;2.08;1.23;;;;;;;;;;5070485;28;20312;-14
2022/06/24 08:07:51;;;;;;;2.25;1.35;;;;;;;;;;5070481;28;20224;-14
2022/06/24 08:10:20;;;;;;;3.08;1.30;;;;;;;;;;5070223;28;20238;-14
2022/06/24 08:12:47;;;;;;;3.20;1.58;;;;;;;;;;5070582;28;20226;-13
2022/06/24 08:15:16;;;;;;;4.25;1.50;;;;;;;;;;5069607;28;20220;-14
2022/06/24 08:17:43;;;;;;;2.60;1.20;;;;;;;;;;5070328;28;20229;-14
2022/06/24 08:20:11;;;;;;;2.63;1.20;;;;;;;;;;5070226;28;21003;-14
2022/06/24 08:22:39;;;;;;;3.10;1.30;;;;;;;;;;5069228;28;20729;-14
2022/06/24 08:25:07;;;;;;;3.20;1.30;;;;;;;;;;5070702;28;20233;-14
2022/06/24 08:27:50;;;;;;;6.78;1.60;;;;;;;;;;5070154;28;20225;-14
2022/06/24 08:30:17;;;;;;;3.95;1.40;;;;;;;;;;5069888;28;20321;-14
2022/06/24 08:32:45;;;;;;;2.33;1.25;;;;;;;;;;5069876;28;20351;-14
2022/06/24 08:35:12;;;;;;;3.47;1.50;;;;;;;;;;5069837;28;20253;-14
2022/06/24 08:37:56;;;;;;;3.72;1.65;;;;;;;;;;5071241;28;20291;-14
2022/06/24 08:40:24;;;;;;;1.65;1.20;;;;;;;;;;5072827;28;20230;-14
2022/06/24 08:42:53;;;;;;;3.17;1.48;;;;;;;;;;5073859;28;20786;-14
2022/06/24 08:45:20;;;;;;;2.78;1.50;;;;;;;;;;5072901;28;20226;-13
2022/06/24 08:47:48;;;;;;;1.42;1.05;;;;;;;;;;5074031;28;20988;-14
2022/06/24 08:50:15;;;;;;;2.35;1.40;;;;;;;;;;5073073;28;20217;-14
2022/06/24 08:52:46;;;;;;;3.85;1.40;;;;;;;;;;5073603;28;20665;-14
2022/06/24 08:55:21;;;;;;;3.80;1.52;;;;;;;;;;5072986;28;20233;-14
2022/06/24 08:57:48;;;;;;;2.13;1.50;;;;;;;;;;5073587;28;21022;-14
2022/06/24 09:00:18;;;;;;;2.28;1.75;;;;;;;;;;5073086;28;20327;-14
2022/06/24 09:02:47;;;;;;;4.63;1.58;;;;;;;;;;5073352;28;20257;-14
2022/06/24 09:05:15;;;;;;;4.57;1.50;;;;;;;;;;5071989;28;20272;-14
2022/06/24 09:07:42;;;;;;;3.95;1.67;;;;;;;;;;5073041;28;20221;-14
2022/06/24 09:10:11;;;;;;;2.80;1.27;;;;;;;;;;5073631;28;20791;-14
2022/06/24 09:12:39;;;;;;;2.38;1.58;;;;;;;;;;5072983;28;20221;-14
2022/06/24 09:15:07;;;;;;;4.10;1.73;;;;;;;;;;5072742;28;20225;-14
2022/06/24 09:17:36;;;;;;;4.50;1.88;;;;;;;;;;5084683;28;20291;-14
2022/06/24 09:20:04;;;;;;;3.10;1.90;;;;;;;;;;5091091;28;20240;-14
2022/06/24 09:22:52;;;;;;;3.00;2.00;;;;;;;;;;5092470;28;20245;-14
2022/06/24 09:25:19;;;;;;;2.53;1.80;;;;;;;;;;5092955;28;20655;-13
2022/06/24 09:27:47;;;;;;;4.10;1.90;;;;;;;;;;5092940;28;20233;-14
2022/06/24 09:30:15;;;;;;;2.78;1.83;;;;;;;;;;5090081;28;20228;-13
2022/06/24 09:32:51;;;;;;;2.72;1.70;;;;;;;;;;5093515;28;20217;-14
2022/06/24 09:35:39;;;;;;;3.35;1.95;;;;;;;;;;5080698;28;20240;-14
2022/06/24 09:38:06;;;;;;;3.55;1.90;;;;;;;;;;5093211;28;20213;-14
2022/06/24 09:40:34;;;;;;;2.30;1.73;;;;;;;;;;5086328;28;20241;-14
2022/06/24 09:43:02;;;;;;;5.35;2.30;;;;;;;;;;5072617;28;20218;-13
2022/06/24 09:45:44;;;;;;;2.95;1.60;;;;;;;;;;5077932;28;20221;-14
2022/06/24 09:48:13;;;;;;;3.17;1.92;;;;;;;;;;5090885;28;20799;-14
2022/06/24 09:50:41;;;;;;;3.35;2.15;;;;;;;;;;5091723;28;20224;-14
2022/06/24 09:53:09;;;;;;;3.53;2.00;;;;;;;;;;5093299;28;20221;-14
2022/06/24 09:55:37;;;;;;;3.10;2.30;;;;;;;;;;5085434;28;20681;-14
2022/06/24 09:58:05;;;;;;;2.70;2.10;;;;;;;;;;5072678;28;20268;-14
2022/06/24 10:00:40;;;;;;;2.95;2.10;;;;;;;;;;5075007;28;20243;-14
2022/06/24 10:03:09;;;;;;;4.72;2.10;;;;;;;;;;5092740;28;20308;-14
2022/06/24 10:05:38;;;;;;;3.90;1.90;;;;;;;;;;5090387;28;20244;-14
2022/06/24 10:08:06;;;;;;;3.35;2.00;;;;;;;;;;5092679;28;20679;-13
2022/06/24 10:10:34;;;;;;;3.20;2.08;;;;;;;;;;5092423;28;20733;-14
2022/06/24 10:13:04;;;;;;;2.33;2.05;;;;;;;;;;5091502;28;20232;-13
2022/06/24 10:15:31;;;;;;;4.20;2.33;;;;;;;;;;5090240;28;20237;-14
2022/06/24 10:18:00;;;;;;;2.55;2.10;;;;;;;;;;5092693;28;20311;-14
2022/06/24 10:20:27;;;;;;;3.58;2.03;;;;;;;;;;5086292;28;20213;-14
2022/06/24 10:22:57;;;;;;;4.30;2.40;;;;;;;;;;5084736;28;21038;-14
2022/06/24 10:25:39;;;;;;;3.10;2.40;;;;;;;;;;5091593;28;20225;-14
2022/06/24 10:28:07;;;;;;;3.28;2.38;;;;;;;;;;5091323;28;20224;-14
2022/06/24 10:30:53;;;;;;;4.40;2.30;;;;;;;;;;5089697;28;20976;-14
2022/06/24 10:33:21;;;;;;;3.72;2.40;;;;;;;;;;5091860;28;20249;-14
2022/06/24 10:35:54;;;;;;;3.80;2.13;;;;;;;;;;5088525;28;20340;-14
2022/06/24 10:38:23;;;;;;;3.22;2.47;;;;;;;;;;5092794;28;20213;-14
2022/06/24 10:40:51;;;;;;;2.85;1.98;;;;;;;;;;5090030;28;20239;-14
2022/06/24 10:43:32;;;;;;;4.93;2.33;;;;;;;;;;5092207;28;20221;-14
2022/06/24 10:46:18;;;;;;;2.97;2.67;;;;;;;;;;5089301;28;20233;-14
2022/06/24 10:48:57;;;;;;;3.45;2.80;;;;;;;;;;5091975;28;20655;-14
2022/06/24 10:51:24;;;;;;;3.80;2.58;;;;;;;;;;5078621;28;20225;-14
2022/06/24 10:54:10;;;;;;;3.65;3.28;;;;;;;;;;5071786;28;20229;-14
2022/06/24 10:56:40;;;;;;;3.63;3.33;;;;;;;;;;5086105;28;20259;-14
2022/06/24 10:59:07;;;;;;;6.13;3.75;;;;;;;;;;5091606;28;20990;-14
2022/06/24 11:01:34;;;;;;;4.35;3.95;;;;;;;;;;5089134;28;20302;-14
2022/06/24 11:04:02;;;;;;;5.70;3.10;;;;;;;;;;5091851;28;20684;-14
2022/06/24 11:06:30;;;;;;;4.38;3.42;;;;;;;;;;5081288;28;20236;-14
2022/06/24 11:09:04;;;;;;;4.28;3.60;;;;;;;;;;5090751;28;20691;-14
2022/06/24 11:11:32;;;;;;;4.75;3.50;;;;;;;;;;5090936;28;20220;-14
2022/06/24 11:14:00;;;;;;;7.30;3.63;;;;;;;;;;5091526;28;20231;-14
2022/06/24 11:16:28;;;;;;;6.15;3.53;;;;;;;;;;5091179;28;20225;-14
2022/06/24 11:18:55;;;;;;;6.75;4.05;;;;;;;;;;5091273;28;20225;-14
2022/06/24 11:21:23;;;;;;;5.75;3.70;;;;;;;;;;5090612;28;20240;-14
2022/06/24 11:23:53;;;;;;;3.80;3.40;;;;;;;;;;5091912;28;20252;-13
2022/06/24 11:26:20;;;;;;;5.57;3.78;;;;;;;;;;5078377;28;20240;-14
2022/06/24 11:28:50;;;;;;;3.40;3.10;;;;;;;;;;5076718;28;20228;-14
2022/06/24 11:31:19;;;;;;;4.50;3.33;;;;;;;;;;5091059;28;20713;-13
2022/06/24 11:33:48;;;;;;;3.60;3.30;;;;;;;;;;5091663;28;20294;-14
2022/06/24 11:36:16;;;;;;;4.65;3.80;;;;;;;;;;5079381;28;20240;-14
2022/06/24 11:38:52;;;;;;;5.10;4.03;;;;;;;;;;5070721;28;20231;-14
2022/06/24 11:41:24;;;;;;;5.38;3.92;;;;;;;;;;5088941;28;20797;-14
2022/06/24 11:44:11;;;;;;;4.93;4.28;;;;;;;;;;5091187;28;20216;-13
2022/06/24 11:46:40;;;;;;;9.13;4.95;;;;;;;;;;5088938;28;20231;-14
2022/06/24 11:49:08;;;;;;;4.43;3.95;;;;;;;;;;5090911;28;20212;-14
2022/06/24 11:51:36;;;;;;;5.35;3.83;;;;;;;;;;5089958;28;20955;-14
2022/06/24 11:54:04;;;;;;;6.15;4.15;;;;;;;;;;5090976;28;20227;-14
2022/06/24 11:56:32;;;;;;;4.88;4.38;;;;;;;;;;5090856;28;20220;-14
2022/06/24 11:58:59;;;;;;;6.10;4.88;;;;;;;;;;5090827;28;20308;-14
2022/06/24 12:01:27;;;;;;;5.82;5.22;;;;;;;;;;5089046;28;20370;-14
2022/06/24 12:03:56;;;;;;;6.90;5.63;;;;;;;;;;5090942;28;20229;-14
2022/06/24 12:06:24;;;;;;;6.32;4.90;;;;;;;;;;5081139;28;20221;-14
2022/06/24 12:08:51;;;;;;;6.60;4.88;;;;;;;;;;5070403;28;20251;-14
2022/06/24 12:11:19;;;;;;;4.47;3.92;;;;;;;;;;5090395;28;20227;-14
2022/06/24 12:13:55;;;;;;;7.32;4.18;;;;;;;;;;5092646;28;20277;-14
2022/06/24 12:16:22;;;;;;;6.85;4.45;;;;;;;;;;5092299;28;20212;-14
2022/06/24 12:18:50;;;;;;;5.38;4.88;;;;;;;;;;5093981;28;20241;-14
2022/06/24 12:21:25;;;;;;;5.28;3.83;;;;;;;;;;5093220;28;20288;-14
2022/06/24 12:23:52;;;;;;;4.88;4.38;;;;;;;;;;5093670;28;20251;-14
2022/06/24 12:26:20;;;;;;;4.38;3.80;;;;;;;;;;5092968;28;20213;-14
2022/06/24 12:28:58;;;;;;;5.18;4.68;;;;;;;;;;5094651;28;20223;-14
2022/06/24 12:31:25;;;;;;;5.07;4.10;;;;;;;;;;5093747;28;20260;-14
2022/06/24 12:33:53;;;;;;;5.95;3.47;;;;;;;;;;5094115;28;20221;-14
2022/06/24 12:36:21;;;;;;;4.88;3.72;;;;;;;;;;5086171;28;20235;-14
2022/06/24 12:39:03;;;;;;;4.05;3.60;;;;;;;;;;5073482;28;20232;-14
2022/06/24 12:41:30;;;;;;;4.80;3.50;;;;;;;;;;5073329;28;20582;-14
2022/06/24 12:43:58;;;;;;;3.75;3.45;;;;;;;;;;5073602;28;20225;-14
2022/06/24 12:46:27;;;;;;;3.97;3.55;;;;;;;;;;5086538;28;20224;-14
2022/06/24 12:51:43;;;;;;;3.63;3.33;;;;;;;;;;5077669;28;20229;-13
2022/06/24 12:54:12;;;;;;;4.20;3.60;;;;;;;;;;5073265;28;20898;-14
2022/06/24 12:56:39;;;;;;;3.92;3.55;;;;;;;;;;5087837;28;20233;-14
2022/06/24 12:59:07;;;;;;;3.63;3.30;;;;;;;;;;5093658;28;20209;-14
2022/06/24 13:01:40;;;;;;;3.70;3.40;;;;;;;;;;5093045;28;20240;-14
2022/06/24 13:04:08;;;;;;;4.07;3.40;;;;;;;;;;5093337;28;20601;-14
2022/06/24 13:06:36;;;;;;;4.13;3.35;;;;;;;;;;5085325;28;20221;-14
2022/06/24 13:09:03;;;;;;;3.58;3.28;;;;;;;;;;5091258;28;20243;-14
2022/06/24 13:11:32;;;;;;;4.80;3.55;;;;;;;;;;5093434;28;20278;-14
2022/06/24 13:13:59;;;;;;;3.55;3.25;;;;;;;;;;5093879;28;20222;-14
2022/06/24 13:16:27;;;;;;;3.72;3.30;;;;;;;;;;5092417;28;20274;-14
2022/06/24 13:18:54;;;;;;;3.55;3.25;;;;;;;;;;5092475;28;20258;-14
2022/06/24 13:21:22;;;;;;;4.88;3.75;;;;;;;;;;5079712;28;20257;-14
2022/06/24 13:23:50;;;;;;;6.00;3.22;;;;;;;;;;5072067;28;20221;-14
2022/06/24 13:26:17;;;;;;;4.20;3.80;;;;;;;;;;5072196;28;20305;-14
2022/06/24 13:28:46;;;;;;;3.53;3.22;;;;;;;;;;5086055;28;20731;-13
2022/06/24 13:31:13;;;;;;;3.53;3.22;;;;;;;;;;5092441;28;20239;-14
2022/06/24 13:33:41;;;;;;;5.00;3.33;;;;;;;;;;5092835;28;20696;-14
2022/06/24 13:36:08;;;;;;;4.13;3.00;;;;;;;;;;5082403;28;20676;-14
2022/06/24 13:38:35;;;;;;;3.13;2.83;;;;;;;;;;5072423;28;20755;-14
2022/06/24 13:41:03;;;;;;;3.55;3.25;;;;;;;;;;5081635;28;20233;-14
2022/06/24 13:43:30;;;;;;;3.60;3.25;;;;;;;;;;5092731;28;20220;-14
2022/06/24 13:45:59;;;;;;;3.38;2.85;;;;;;;;;;5092645;28;20233;-14
2022/06/24 13:48:26;;;;;;;3.50;3.20;;;;;;;;;;5092738;28;21049;-13
2022/06/24 13:50:54;;;;;;;3.63;3.22;;;;;;;;;;5084020;28;20217;-14
2022/06/24 13:53:21;;;;;;;3.70;3.40;;;;;;;;;;5090664;28;20227;-13
2022/06/24 13:55:48;;;;;;;3.30;3.10;;;;;;;;;;5089355;28;20228;-13
2022/06/24 13:58:16;;;;;;;3.15;2.92;;;;;;;;;;5092610;28;20231;-14
2022/06/24 14:00:43;;;;;;;3.40;2.95;;;;;;;;;;5088268;28;20239;-14
2022/06/24 14:03:12;;;;;;;3.05;2.75;;;;;;;;;;5091717;28;20241;-14
2022/06/24 14:05:39;;;;;;;3.45;2.90;;;;;;;;;;5091641;28;20255;-14
2022/06/24 14:08:07;;;;;;;3.30;3.00;;;;;;;;;;5092278;28;20241;-14
2022/06/24 14:10:34;;;;;;;3.33;3.03;;;;;;;;;;5086375;28;20623;-14
2022/06/24 14:13:02;;;;;;;3.33;3.03;;;;;;;;;;5071940;28;20941;-14
2022/06/24 14:15:29;;;;;;;3.22;2.88;;;;;;;;;;5089216;28;21072;-14
2022/06/24 14:17:57;;;;;;;4.30;3.30;;;;;;;;;;5092475;28;20703;-14
2022/06/24 14:20:26;;;;;;;3.25;2.95;;;;;;;;;;5087294;28;20222;-13
2022/06/24 14:25:38;;;;;;;3.15;2.85;;;;;;;;;;5084006;28;20928;-14
2022/06/24 14:28:05;;;;;;;3.45;3.10;;;;;;;;;;5091684;28;20684;-14
2022/06/24 14:30:33;;;;;;;2.70;2.50;;;;;;;;;;5090462;28;20221;-14
2022/06/24 14:33:00;;;;;;;3.15;2.85;;;;;;;;;;5105288;28;20235;-13
2022/06/24 14:35:29;;;;;;;3.67;3.08;;;;;;;;;;5088454;28;20244;-14
2022/06/24 14:40:41;;;;;;;3.50;3.03;;;;;;;;;;5090458;28;20224;-14
2022/06/24 14:43:21;;;;;;;3.58;3.10;;;;;;;;;;5091305;28;20734;-14
2022/06/24 14:45:49;;;;;;;3.38;3.08;;;;;;;;;;5091353;28;20251;-14
2022/06/24 14:48:16;;;;;;;4.13;3.00;;;;;;;;;;5090302;28;20236;-14
2022/06/24 14:50:45;;;;;;;2.75;2.55;;;;;;;;;;5091350;28;20235;-14
2022/06/24 14:53:13;;;;;;;3.08;2.83;;;;;;;;;;5091396;28;20229;-14
2022/06/24 14:55:40;;;;;;;2.55;2.35;;;;;;;;;;5087591;28;20239;-14
2022/06/24 14:58:08;;;;;;;2.63;2.42;;;;;;;;;;5091242;28;20303;-14
2022/06/24 15:00:35;;;;;;;2.67;2.47;;;;;;;;;;5084851;28;20236;-13
2022/06/24 15:03:03;;;;;;;2.53;2.30;;;;;;;;;;5091627;28;21130;-14
2022/06/24 15:05:30;;;;;;;3.00;2.70;;;;;;;;;;5085985;28;20229;-14
2022/06/24 15:07:59;;;;;;;2.22;2.03;;;;;;;;;;5090454;28;20233;-13